createdAt,value
2023-03-14T00:00:00.172Z, 10.4
2023-03-14T00:02:00.154Z, 10.4
2023-03-14T00:04:00.111Z, 10.4
2023-03-14T00:06:00.152Z, 10.2
2023-03-14T00:08:00.106Z, 10.4
2023-03-14T00:10:00.156Z, 10.4
2023-03-14T00:12:00.164Z, 10.4
2023-03-14T00:14:00.163Z, 10.3
2023-03-14T00:16:00.173Z, 10.3
2023-03-14T00:18:00.119Z, 10.4
2023-03-14T00:20:00.116Z, 10.3
2023-03-14T00:22:00.089Z, 10.3
2023-03-14T00:24:00.115Z, 10.1
2023-03-14T00:26:00.128Z, 10.3
2023-03-14T00:28:00.089Z, 10.4
2023-03-14T00:30:00.094Z, 10.5
2023-03-14T00:32:00.068Z, 10.6
2023-03-14T00:34:00.068Z, 10.6
2023-03-14T00:36:00.137Z, 10.6
2023-03-14T00:38:00.117Z, 10.5
2023-03-14T00:40:00.058Z, 10.7
2023-03-14T00:42:00.080Z, 10.7
2023-03-14T00:44:00.092Z, 10.8
2023-03-14T00:46:00.090Z, 10.9
2023-03-14T00:48:00.091Z, 10.9
2023-03-14T00:50:00.072Z, 10.7
2023-03-14T00:52:00.082Z, 10.7
2023-03-14T00:54:00.087Z, 10.8
2023-03-14T00:56:00.107Z, 10.8
2023-03-14T00:58:00.099Z, 10.6
2023-03-14T01:00:00.164Z, 10.6
2023-03-14T01:02:00.150Z, 10.5
2023-03-14T01:04:00.115Z, 10.4
2023-03-14T01:06:00.124Z, 10
2023-03-14T01:08:00.111Z, 9.9
2023-03-14T01:10:00.142Z, 9.9
2023-03-14T01:12:00.125Z, 9.9
2023-03-14T01:14:00.152Z, 9.8
2023-03-14T01:16:00.171Z, 9.8
2023-03-14T01:18:00.121Z, 9.9
2023-03-14T01:20:00.235Z, 9.9
2023-03-14T01:22:00.129Z, 9.9
2023-03-14T01:24:00.175Z, 9.9
2023-03-14T01:26:00.121Z, 9.9
2023-03-14T01:28:00.059Z, 9.9
2023-03-14T01:30:00.094Z, 9.9
2023-03-14T01:32:00.066Z, 9.8
2023-03-14T01:34:00.064Z, 9.8
2023-03-14T01:36:00.164Z, 10
2023-03-14T01:38:00.048Z, 10
2023-03-14T01:40:00.048Z, 10
2023-03-14T01:42:00.085Z, 10.1
2023-03-14T01:44:00.059Z, 10.2
2023-03-14T01:46:00.224Z, 10.2
2023-03-14T01:48:00.101Z, 10.2
2023-03-14T01:50:00.074Z, 10.1
2023-03-14T01:52:00.055Z, 10.2
2023-03-14T01:54:00.071Z, 10.1
2023-03-14T01:56:00.131Z, 10
2023-03-14T01:58:00.141Z, 9.9
2023-03-14T02:00:00.104Z, 9.9
2023-03-14T02:02:00.143Z, 10
2023-03-14T02:04:00.134Z, 10.1
2023-03-14T02:06:00.138Z, 9.9
2023-03-14T02:08:00.107Z, 9.7
2023-03-14T02:10:00.200Z, 9.8
2023-03-14T02:12:00.129Z, 9.8
2023-03-14T02:14:00.092Z, 9.8
2023-03-14T02:16:00.149Z, 9.7
2023-03-14T02:18:00.140Z, 9.7
2023-03-14T02:20:00.114Z, 9.7
2023-03-14T02:22:00.114Z, 9.6
2023-03-14T02:24:00.152Z, 9.6
2023-03-14T02:26:00.099Z, 9.5
2023-03-14T02:28:00.078Z, 9.6
2023-03-14T02:30:00.074Z, 9.5
2023-03-14T02:32:00.167Z, 9.7
2023-03-14T02:34:00.065Z, 9.5
2023-03-14T02:36:00.165Z, 9.6
2023-03-14T02:38:00.036Z, 9.5
2023-03-14T02:40:00.037Z, 9.5
2023-03-14T02:42:00.055Z, 9.5
2023-03-14T02:44:00.063Z, 9.4
2023-03-14T02:46:00.207Z, 9.3
2023-03-14T02:48:00.108Z, 9.3
2023-03-14T02:50:00.052Z, 9.4
2023-03-14T02:52:00.073Z, 9.4
2023-03-14T02:54:00.095Z, 9.4
2023-03-14T02:56:00.100Z, 9.4
2023-03-14T02:58:00.083Z, 9.3
2023-03-14T03:00:00.102Z, 9.1
2023-03-14T03:02:00.130Z, 9.1
2023-03-14T03:04:00.122Z, 9.2
2023-03-14T03:06:00.115Z, 9.3
2023-03-14T03:08:00.112Z, 9.4
2023-03-14T03:10:00.130Z, 9.3
2023-03-14T03:12:00.096Z, 9.3
2023-03-14T03:14:00.096Z, 9.3
2023-03-14T03:16:00.105Z, 9.2
2023-03-14T03:18:00.110Z, 9.3
2023-03-14T03:20:00.150Z, 9.2
2023-03-14T03:22:00.118Z, 9.2
2023-03-14T03:24:00.126Z, 9.2
2023-03-14T03:26:00.118Z, 9.3
2023-03-14T03:28:00.094Z, 9.1
2023-03-14T03:30:00.105Z, 9.2
2023-03-14T03:32:00.053Z, 9.1
2023-03-14T03:34:00.053Z, 9.1
2023-03-14T03:36:00.217Z, 9.1
2023-03-14T03:38:00.054Z, 9.3
2023-03-14T03:40:00.041Z, 9.2
2023-03-14T03:42:00.053Z, 9.2
2023-03-14T03:44:00.049Z, 9.1
2023-03-14T03:46:00.111Z, 9.1
2023-03-14T03:48:00.066Z, 9.2
2023-03-14T03:50:00.076Z, 9.3
2023-03-14T03:52:00.023Z, 9.3
2023-03-14T03:54:00.028Z, 9.3
2023-03-14T03:56:00.123Z, 9.4
2023-03-14T03:58:00.133Z, 9.5
2023-03-14T04:00:00.170Z, 9.3
2023-03-14T04:02:00.130Z, 9.3
2023-03-14T04:04:00.166Z, 9.2
2023-03-14T04:06:00.160Z, 9.4
2023-03-14T04:08:00.103Z, 9.4
2023-03-14T04:10:00.130Z, 9.4
2023-03-14T04:12:00.143Z, 9.3
2023-03-14T04:14:00.119Z, 9.3
2023-03-14T04:16:00.225Z, 9.3
2023-03-14T04:18:00.121Z, 9.4
2023-03-14T04:20:00.163Z, 9.4
2023-03-14T04:22:00.137Z, 9.5
2023-03-14T04:24:00.360Z, 9.4
2023-03-14T04:26:00.105Z, 9.5
2023-03-14T04:28:00.062Z, 9.5
2023-03-14T04:30:00.070Z, 9.6
2023-03-14T04:32:00.063Z, 9.6
2023-03-14T04:34:00.046Z, 9.6
2023-03-14T04:36:00.131Z, 9.4
2023-03-14T04:38:00.049Z, 9.4
2023-03-14T04:40:00.031Z, 9.6
2023-03-14T04:42:00.065Z, 9.6
2023-03-14T04:44:00.044Z, 9.5
2023-03-14T04:46:00.046Z, 9.4
2023-03-14T04:48:00.069Z, 9.4
2023-03-14T04:50:00.034Z, 9.5
2023-03-14T04:52:00.021Z, 9.4
2023-03-14T04:54:00.025Z, 9.4
2023-03-14T04:56:00.101Z, 9.4
2023-03-14T04:58:00.122Z, 9.4
2023-03-14T05:00:00.118Z, 9.4
2023-03-14T05:02:00.250Z, 9.4
2023-03-14T05:04:00.118Z, 9.4
2023-03-14T05:06:00.117Z, 9.4
2023-03-14T05:08:00.102Z, 9.6
2023-03-14T05:10:00.125Z, 9.5
2023-03-14T05:12:00.117Z, 9.5
2023-03-14T05:14:00.139Z, 9.3
2023-03-14T05:16:00.206Z, 9.4
2023-03-14T05:18:00.156Z, 9.5
2023-03-14T05:20:00.114Z, 9.5
2023-03-14T05:22:00.122Z, 9.4
2023-03-14T05:24:00.128Z, 9.4
2023-03-14T05:26:00.067Z, 9.4
2023-03-14T05:28:00.084Z, 9.4
2023-03-14T05:30:00.131Z, 9.4
2023-03-14T05:32:00.065Z, 9.4
2023-03-14T05:34:00.052Z, 9.4
2023-03-14T05:36:00.062Z, 9.4
2023-03-14T05:38:00.041Z, 9.3
2023-03-14T05:40:00.037Z, 9.3
2023-03-14T05:42:00.042Z, 9.3
2023-03-14T05:44:00.057Z, 9.2
2023-03-14T05:46:00.100Z, 9.2
2023-03-14T05:48:00.107Z, 9.1
2023-03-14T05:50:00.057Z, 9
2023-03-14T05:52:00.035Z, 8.8
2023-03-14T05:54:00.015Z, 8.8
2023-03-14T05:56:00.105Z, 8.7
2023-03-14T05:58:00.109Z, 8.7
2023-03-14T06:00:00.115Z, 8.6
2023-03-14T06:02:00.259Z, 8.6
2023-03-14T06:04:00.102Z, 8.7
2023-03-14T06:06:00.154Z, 8.7
2023-03-14T06:08:00.115Z, 8.5
2023-03-14T06:10:00.110Z, 8.4
2023-03-14T06:12:00.114Z, 8.3
2023-03-14T06:14:00.101Z, 8.6
2023-03-14T06:16:00.137Z, 8.6
2023-03-14T06:18:00.109Z, 8.6
2023-03-14T06:20:00.125Z, 8.6
2023-03-14T06:22:00.107Z, 8.6
2023-03-14T06:24:00.172Z, 8.7
2023-03-14T06:26:00.103Z, 8.8
2023-03-14T06:28:00.072Z, 8.7
2023-03-14T06:30:00.088Z, 8.6
2023-03-14T06:32:00.041Z, 8.7
2023-03-14T06:34:00.048Z, 8.6
2023-03-14T06:36:00.128Z, 8.7
2023-03-14T06:38:00.068Z, 8.7
2023-03-14T06:40:00.038Z, 8.6
2023-03-14T06:42:00.026Z, 8.7
2023-03-14T06:44:00.052Z, 8.8
2023-03-14T06:46:00.101Z, 8.9
2023-03-14T06:48:00.042Z, 8.9
2023-03-14T06:50:00.054Z, 8.9
2023-03-14T06:52:00.019Z, 8.8
2023-03-14T06:54:00.055Z, 8.8
2023-03-14T06:56:00.119Z, 8.8
2023-03-14T06:58:00.154Z, 8.9
2023-03-14T07:00:00.164Z, 9.1
2023-03-14T07:02:00.148Z, 9.1
2023-03-14T07:04:00.285Z, 9.1
2023-03-14T07:06:00.108Z, 9.1
2023-03-14T07:08:00.102Z, 9.1
2023-03-14T07:10:00.120Z, 9.1
2023-03-14T07:12:00.129Z, 9.2
2023-03-14T07:14:00.128Z, 9.2
2023-03-14T07:16:00.185Z, 9.2
2023-03-14T07:18:00.121Z, 9.2
2023-03-14T07:20:00.161Z, 9.2
2023-03-14T07:22:00.127Z, 9.3
2023-03-14T07:24:00.151Z, 9.4
2023-03-14T07:26:00.143Z, 9.4
2023-03-14T07:28:00.063Z, 9.4
2023-03-14T07:30:00.120Z, 9.4
2023-03-14T07:32:00.040Z, 9.5
2023-03-14T07:34:00.057Z, 9.5
2023-03-14T07:36:00.131Z, 9.5
2023-03-14T07:38:00.052Z, 9.6
2023-03-14T07:40:00.040Z, 9.6
2023-03-14T07:42:00.422Z, 9.6
2023-03-14T07:44:00.048Z, 9.7
2023-03-14T07:46:00.046Z, 9.7
2023-03-14T07:48:00.064Z, 9.8
2023-03-14T07:50:00.051Z, 9.9
2023-03-14T07:52:00.041Z, 9.9
2023-03-14T07:54:00.040Z, 9.8
2023-03-14T07:56:00.133Z, 9.8
2023-03-14T07:58:00.129Z, 9.7
2023-03-14T08:00:00.164Z, 9.7
2023-03-14T08:02:00.137Z, 9.7
2023-03-14T08:04:00.200Z, 9.9
2023-03-14T08:06:00.119Z, 9.8
2023-03-14T08:08:00.139Z, 9.8
2023-03-14T08:10:00.135Z, 9.8
2023-03-14T08:12:00.130Z, 9.9
2023-03-14T08:14:00.119Z, 10
2023-03-14T08:16:00.212Z, 10.1
2023-03-14T08:18:00.151Z, 10
2023-03-14T08:20:00.156Z, 9.9
2023-03-14T08:22:00.116Z, 10
2023-03-14T08:24:00.151Z, 10
2023-03-14T08:26:00.115Z, 10
2023-03-14T08:28:00.108Z, 10
2023-03-14T08:30:00.133Z, 10.1
2023-03-14T08:32:00.157Z, 10.1
2023-03-14T08:34:00.071Z, 10.2
2023-03-14T08:36:00.111Z, 10.2
2023-03-14T08:38:00.065Z, 10.1
2023-03-14T08:40:00.043Z, 10.1
2023-03-14T08:42:00.075Z, 10.2
2023-03-14T08:44:00.118Z, 10.3
2023-03-14T08:46:00.112Z, 10.2
2023-03-14T08:48:00.060Z, 10.3
2023-03-14T08:50:00.105Z, 10.2
2023-03-14T08:52:00.058Z, 10.1
2023-03-14T08:54:00.048Z, 10.2
2023-03-14T08:56:00.105Z, 10.3
2023-03-14T08:58:00.123Z, 10.4
2023-03-14T09:00:00.145Z, 10.4
2023-03-14T09:02:00.159Z, 10.2
2023-03-14T09:04:00.232Z, 10.2
2023-03-14T09:06:00.128Z, 10.1
2023-03-14T09:08:00.134Z, 10.2
2023-03-14T09:10:00.114Z, 10.2
2023-03-14T09:12:00.120Z, 10.4
2023-03-14T09:14:00.116Z, 10.4
2023-03-14T09:16:00.114Z, 10.4
2023-03-14T09:18:00.204Z, 10.5
2023-03-14T09:20:00.751Z, 10.3
2023-03-14T09:22:00.113Z, 10.4
2023-03-14T09:24:00.131Z, 10.2
2023-03-14T09:26:00.127Z, 10.2
2023-03-14T09:28:00.065Z, 10.1
2023-03-14T09:30:00.122Z, 10.2
2023-03-14T09:32:00.138Z, 10.3
2023-03-14T09:34:00.105Z, 10.3
2023-03-14T09:36:00.110Z, 10.3
2023-03-14T09:38:00.083Z, 10.3
2023-03-14T09:40:00.031Z, 10.4
2023-03-14T09:42:00.083Z, 10.3
2023-03-14T09:44:00.060Z, 10.2
2023-03-14T09:46:00.118Z, 10.2
2023-03-14T09:48:00.372Z, 10.2
2023-03-14T09:50:00.085Z, 10.2
2023-03-14T09:52:01.382Z, 10.3
2023-03-14T09:54:00.092Z, 10.2
2023-03-14T09:56:00.118Z, 10.2
2023-03-14T09:58:00.102Z, 10.2
2023-03-14T10:00:00.109Z, 10.2
2023-03-14T10:02:00.125Z, 10.2
2023-03-14T10:04:00.175Z, 10
2023-03-14T10:06:00.153Z, 10
2023-03-14T10:08:00.092Z, 10
2023-03-14T10:10:00.127Z, 10.1
2023-03-14T10:12:01.128Z, 10
2023-03-14T10:14:00.125Z, 9.9
2023-03-14T10:16:00.147Z, 9.8
2023-03-14T10:18:00.105Z, 9.8
2023-03-14T10:20:00.124Z, 9.8
2023-03-14T10:22:00.101Z, 9.9
2023-03-14T10:24:00.118Z, 9.9
2023-03-14T10:26:00.069Z, 9.9
2023-03-14T10:28:00.045Z, 9.9
2023-03-14T10:30:00.090Z, 9.9
2023-03-14T10:32:00.096Z, 10
2023-03-14T10:34:00.092Z, 9.9
2023-03-14T10:36:00.190Z, 10.1
2023-03-14T10:38:00.082Z, 10.1
2023-03-14T10:40:00.044Z, 10.1
2023-03-14T10:42:00.255Z, 10.1
2023-03-14T10:44:00.075Z, 10.1
2023-03-14T10:46:00.101Z, 10.1
2023-03-14T10:48:00.145Z, 10.1
2023-03-14T10:50:00.043Z, 10.1
2023-03-14T10:52:00.037Z, 10
2023-03-14T10:54:00.050Z, 9.9
2023-03-14T10:56:00.118Z, 9.8
2023-03-14T10:58:00.120Z, 9.8
2023-03-14T11:00:00.125Z, 9.8
2023-03-14T11:02:00.137Z, 9.8
2023-03-14T11:04:00.123Z, 9.7
2023-03-14T11:06:00.109Z, 9.7
2023-03-14T11:08:00.110Z, 9.6
2023-03-14T11:10:00.131Z, 9.6
2023-03-14T11:12:00.142Z, 9.7
2023-03-14T11:14:00.118Z, 9.6
2023-03-14T11:16:00.300Z, 9.7
2023-03-14T11:18:00.148Z, 9.7
2023-03-14T11:20:00.133Z, 9.5
2023-03-14T11:22:00.125Z, 9.4
2023-03-14T11:24:00.133Z, 9.3
2023-03-14T11:26:00.099Z, 7.9
2023-03-14T11:28:00.074Z, 7.5
2023-03-14T11:30:00.065Z, 7.3
2023-03-14T11:32:00.048Z, 7.3
2023-03-14T11:34:00.074Z, 7.2
2023-03-14T11:36:00.176Z, 7.1
2023-03-14T11:38:00.041Z, 7
2023-03-14T11:40:00.053Z, 6.7
2023-03-14T11:42:00.702Z, 6.7
2023-03-14T11:44:00.561Z, 6.7
2023-03-14T11:46:00.091Z, 6.7
2023-03-14T11:48:00.055Z, 6.7
2023-03-14T11:50:00.062Z, 6.7
2023-03-14T11:52:00.100Z, 6.7
2023-03-14T11:54:00.071Z, 6.6
2023-03-14T11:56:00.112Z, 6.6
2023-03-14T11:58:00.129Z, 6.6
2023-03-14T12:00:00.160Z, 6.5
2023-03-14T12:02:00.163Z, 6.5
2023-03-14T12:04:00.176Z, 6.6
2023-03-14T12:06:00.129Z, 6.6
2023-03-14T12:08:00.170Z, 6.6
2023-03-14T12:10:00.127Z, 6.5
2023-03-14T12:12:00.156Z, 6.6
2023-03-14T12:14:00.148Z, 6.6
2023-03-14T12:16:00.210Z, 6.7
2023-03-14T12:18:00.138Z, 6.8
2023-03-14T12:20:00.134Z, 6.8
2023-03-14T12:22:00.132Z, 6.8
2023-03-14T12:24:00.150Z, 6.9
2023-03-14T12:26:00.108Z, 6.9
2023-03-14T12:28:00.062Z, 7
2023-03-14T12:30:02.384Z, 7
2023-03-14T12:32:00.154Z, 7
2023-03-14T12:34:00.082Z, 6.9
2023-03-14T12:36:00.252Z, 7
2023-03-14T12:38:00.040Z, 7.1
2023-03-14T12:40:00.381Z, 7.3
2023-03-14T12:42:00.063Z, 7.3
2023-03-14T12:44:00.052Z, 7.3
2023-03-14T12:46:00.120Z, 7.4
2023-03-14T12:48:00.080Z, 7.5
2023-03-14T12:50:00.096Z, 7.7
2023-03-14T12:52:00.040Z, 7.7
2023-03-14T12:54:00.059Z, 7.7
2023-03-14T12:56:00.103Z, 7.8
2023-03-14T12:58:00.145Z, 7.9
2023-03-14T13:00:00.168Z, 8.1
2023-03-14T13:02:00.134Z, 7.7
2023-03-14T13:04:00.212Z, 7.7
2023-03-14T13:06:00.197Z, 7.7
2023-03-14T13:08:00.127Z, 7.7
2023-03-14T13:10:00.168Z, 7.6
2023-03-14T13:12:00.125Z, 7.3
2023-03-14T13:14:00.107Z, 6.8
2023-03-14T13:16:00.122Z, 6.3
2023-03-14T13:18:00.122Z, 6
2023-03-14T13:20:00.110Z, 6.1
2023-03-14T13:22:00.115Z, 6.4
2023-03-14T13:24:00.143Z, 6.7
2023-03-14T13:26:00.088Z, 7
2023-03-14T13:28:00.088Z, 7
2023-03-14T13:30:00.166Z, 7.1
2023-03-14T13:32:00.064Z, 7.1
2023-03-14T13:34:00.240Z, 7.3
2023-03-14T13:36:00.159Z, 7.3
2023-03-14T13:38:10.968Z, 7.3
2023-03-14T13:40:00.137Z, 7.4
2023-03-14T13:42:00.099Z, 7.4
2023-03-14T13:44:00.102Z, 6.9
2023-03-14T13:46:00.081Z, 5.5
2023-03-14T13:48:00.090Z, 4.9
2023-03-14T13:50:00.102Z, 4.8
2023-03-14T13:52:00.070Z, 4.9
2023-03-14T13:54:00.066Z, 5
2023-03-14T13:56:00.130Z, 5.2
2023-03-14T13:58:00.127Z, 5.5
2023-03-14T14:00:00.164Z, 5.6
2023-03-14T14:02:00.141Z, 5.6
2023-03-14T14:04:00.162Z, 5.7
2023-03-14T14:06:00.164Z, 5.8
2023-03-14T14:08:00.148Z, 5.7
2023-03-14T14:10:00.144Z, 5.7
2023-03-14T14:12:14.780Z, 5.7
2023-03-14T14:14:00.127Z, 5.8
2023-03-14T14:16:00.222Z, 5.8
2023-03-14T14:18:00.143Z, 5.7
2023-03-14T14:20:00.150Z, 5.7
2023-03-14T14:22:00.130Z, 5.7
2023-03-14T14:24:00.148Z, 5.7
2023-03-14T14:26:00.091Z, 5.5
2023-03-14T14:28:00.045Z, 5.5
2023-03-14T14:30:00.069Z, 5.4
2023-03-14T14:32:00.055Z, 5.4
2023-03-14T14:34:00.050Z, 5.3
2023-03-14T14:36:00.179Z, 5.2
2023-03-14T14:38:00.052Z, 5.2
2023-03-14T14:40:00.104Z, 5.1
2023-03-14T14:42:00.079Z, 5.1
2023-03-14T14:44:00.041Z, 5
2023-03-14T14:46:00.089Z, 4.9
2023-03-14T14:48:00.056Z, 4.9
2023-03-14T14:50:00.081Z, 4.8
2023-03-14T14:52:00.038Z, 4.8
2023-03-14T14:54:00.047Z, 4.8
2023-03-14T14:56:00.216Z, 4.6
2023-03-14T14:58:00.141Z, 4.6
2023-03-14T15:00:00.161Z, 4.6
2023-03-14T15:02:00.255Z, 4.6
2023-03-14T15:04:00.123Z, 4.7
2023-03-14T15:06:00.128Z, 4.6
2023-03-14T15:08:00.211Z, 4.6
2023-03-14T15:10:00.140Z, 4.7
2023-03-14T15:12:00.120Z, 4.7
2023-03-14T15:14:00.132Z, 4.7
2023-03-14T15:16:00.196Z, 4.7
2023-03-14T15:18:00.122Z, 4.7
2023-03-14T15:20:00.116Z, 4.8
2023-03-14T15:22:00.131Z, 4.8
2023-03-14T15:24:00.116Z, 4.7
2023-03-14T15:26:00.616Z, 4.6
2023-03-14T15:28:00.078Z, 4.6
2023-03-14T15:30:00.139Z, 4.6
2023-03-14T15:32:00.181Z, 4.5
2023-03-14T15:34:00.088Z, 4.6
2023-03-14T15:36:00.134Z, 4.4
2023-03-14T15:38:00.074Z, 4.4
2023-03-14T15:40:00.086Z, 4.4
2023-03-14T15:42:00.087Z, 4.4
2023-03-14T15:44:00.063Z, 4.5
2023-03-14T15:46:00.167Z, 4.5
2023-03-14T15:48:00.068Z, 4.4
2023-03-14T15:50:00.149Z, 4.3
2023-03-14T15:52:00.048Z, 4.3
2023-03-14T15:54:00.062Z, 4.3
2023-03-14T15:56:00.121Z, 4.3
2023-03-14T15:58:00.151Z, 4.2
2023-03-14T16:00:00.152Z, 4.3
2023-03-14T16:02:00.116Z, 4.2
2023-03-14T16:04:00.144Z, 4.1
2023-03-14T16:06:00.123Z, 3.7
2023-03-14T16:08:00.114Z, 3.7
2023-03-14T16:10:00.152Z, 3.8
2023-03-14T16:12:00.132Z, 3.7
2023-03-14T16:14:00.112Z, 3.6
2023-03-14T16:16:00.111Z, 3.5
2023-03-14T16:18:02.488Z, 3.5
2023-03-14T16:20:00.282Z, 3.3
2023-03-14T16:22:00.142Z, 3.2
2023-03-14T16:24:00.146Z, 3.1
2023-03-14T16:26:00.066Z, 3.2
2023-03-14T16:28:10.808Z, 3.2
2023-03-14T16:30:00.308Z, 3.2
2023-03-14T16:32:00.197Z, 3.2
2023-03-14T16:34:00.052Z, 3.3
2023-03-14T16:36:00.144Z, 3.3
2023-03-14T16:38:00.043Z, 3.3
2023-03-14T16:54:00.209Z, 3.3
2023-03-14T16:56:00.138Z, 3.4
2023-03-14T16:58:00.112Z, 3.4
2023-03-14T17:00:00.147Z, 3.4
2023-03-14T17:02:00.120Z, 3.3
2023-03-14T17:04:00.221Z, 3.4
2023-03-14T17:06:00.134Z, 3.3
2023-03-14T17:08:00.124Z, 3.1
2023-03-14T17:10:00.115Z, 2.3
2023-03-14T17:12:00.113Z, 2.1
2023-03-14T17:14:00.110Z, 1.7
2023-03-14T17:16:00.194Z, 1.6
2023-03-14T17:18:00.119Z, 1.7
2023-03-14T17:20:00.149Z, 1.7
2023-03-14T17:22:21.241Z, 2.3
2023-03-14T17:24:00.141Z, 2.9
2023-03-14T17:26:00.129Z, 2.4
2023-03-14T17:28:00.053Z, 2.4
2023-03-14T17:30:00.087Z, 2.4
2023-03-14T17:32:00.091Z, 2.3
2023-03-14T17:34:00.085Z, 2.1
2023-03-14T17:36:00.165Z, 1.9
2023-03-14T17:38:00.044Z, 1.8
2023-03-14T17:40:00.038Z, 1.8
2023-03-14T17:42:00.049Z, 1.9
2023-03-14T17:44:00.043Z, 2.1
2023-03-14T17:46:00.123Z, 2.2
2023-03-14T17:48:00.046Z, 2.3
2023-03-14T17:50:00.052Z, 2.2
2023-03-14T17:52:00.022Z, 2.1
2023-03-14T17:54:00.015Z, 2.2
2023-03-14T17:56:00.124Z, 2.1
2023-03-14T17:58:00.133Z, 2
2023-03-14T18:00:00.149Z, 2
2023-03-14T18:02:00.357Z, 2
2023-03-14T18:04:00.210Z, 2.1
2023-03-14T18:06:00.150Z, 2.1
2023-03-14T18:08:00.096Z, 2.1
2023-03-14T18:10:00.127Z, 2.1
2023-03-14T18:12:07.477Z, 2.2
2023-03-14T18:14:00.110Z, 2.2
2023-03-14T18:16:00.238Z, 2.3
2023-03-14T18:18:00.133Z, 2.3
2023-03-14T18:20:00.151Z, 2.2
2023-03-14T18:22:00.199Z, 2.2
2023-03-14T18:24:00.149Z, 2.3
2023-03-14T18:26:00.139Z, 2.3
2023-03-14T18:28:00.079Z, 2.3
2023-03-14T18:30:00.078Z, 2.4
2023-03-14T18:32:00.205Z, 2.4
2023-03-14T18:34:00.066Z, 2.3
2023-03-14T18:36:00.108Z, 2.3
2023-03-14T18:38:00.053Z, 2.4
2023-03-14T18:40:00.056Z, 2.4
2023-03-14T18:42:00.057Z, 2.5
2023-03-14T18:44:00.060Z, 2.5
2023-03-14T18:46:00.052Z, 2.6
2023-03-14T18:48:00.058Z, 2.8
2023-03-14T18:50:00.052Z, 2.7
2023-03-14T18:52:00.041Z, 2.7
2023-03-14T18:54:08.869Z, 2.7
2023-03-14T18:56:00.132Z, 2.8
2023-03-14T18:58:00.143Z, 2.9
2023-03-14T19:00:00.195Z, 2.9
2023-03-14T19:02:00.222Z, 2.9
2023-03-14T19:04:00.147Z, 2.8
2023-03-14T19:06:00.113Z, 2.7
2023-03-14T19:08:00.113Z, 2.5
2023-03-14T19:10:00.121Z, 2.4
2023-03-14T19:12:00.129Z, 2.4
2023-03-14T19:14:00.158Z, 2.4
2023-03-14T19:16:00.179Z, 2.3
2023-03-14T19:18:00.130Z, 2.3
2023-03-14T19:20:00.183Z, 2.3
2023-03-14T19:22:00.135Z, 2.3
2023-03-14T19:24:00.116Z, 2.3
2023-03-14T19:26:00.097Z, 2.3
2023-03-14T19:28:00.092Z, 2.3
2023-03-14T19:30:00.099Z, 2.3
2023-03-14T19:32:00.144Z, 2.3
2023-03-14T19:34:00.081Z, 2.3
2023-03-14T19:36:00.158Z, 2.3
2023-03-14T19:38:00.037Z, 2.3
2023-03-14T19:40:00.038Z, 2.3
2023-03-14T19:42:00.056Z, 2.2
2023-03-14T19:44:00.085Z, 2.2
2023-03-14T19:46:00.167Z, 2.2
2023-03-14T19:48:00.074Z, 2.3
2023-03-14T19:50:00.051Z, 2.3
2023-03-14T19:52:00.018Z, 2.3
2023-03-14T19:54:00.033Z, 2.3
2023-03-14T19:56:00.098Z, 2.3
2023-03-14T19:58:00.126Z, 2.3
2023-03-14T20:00:00.136Z, 2.3
2023-03-14T20:02:00.124Z, 2.4
2023-03-14T20:04:00.121Z, 2.4
2023-03-14T20:06:00.119Z, 2.4
2023-03-14T20:08:00.107Z, 2.5
2023-03-14T20:10:00.110Z, 2.4
2023-03-14T20:12:00.108Z, 2.5
2023-03-14T20:14:00.130Z, 2.5
2023-03-14T20:16:00.100Z, 2.5
2023-03-14T20:18:00.127Z, 2.5
2023-03-14T20:20:00.125Z, 2.4
2023-03-14T20:22:02.644Z, 2.4
2023-03-14T20:24:00.123Z, 2.3
2023-03-14T20:26:00.102Z, 2.3
2023-03-14T20:28:00.092Z, 2.4
2023-03-14T20:30:00.100Z, 2.4
2023-03-14T20:32:00.047Z, 2.4
2023-03-14T20:34:00.055Z, 2.4
2023-03-14T20:36:00.237Z, 2.3
2023-03-14T20:38:00.144Z, 2.4
2023-03-14T20:40:00.040Z, 2.4
2023-03-14T20:42:00.050Z, 2.3
2023-03-14T20:44:00.105Z, 2.3
2023-03-14T20:46:00.174Z, 2.3
2023-03-14T20:48:00.062Z, 2.3
2023-03-14T20:50:00.040Z, 2.3
2023-03-14T20:52:00.044Z, 2.3
2023-03-14T20:54:00.040Z, 2.2
2023-03-14T20:56:00.135Z, 2.2
2023-03-14T20:58:00.114Z, 2.3
2023-03-14T21:00:00.125Z, 2.3
2023-03-14T21:02:00.280Z, 2.3
2023-03-14T21:04:00.133Z, 2.2
2023-03-14T21:06:00.133Z, 2.4
2023-03-14T21:08:00.116Z, 2.2
2023-03-14T21:10:00.173Z, 2.3
2023-03-14T21:12:00.116Z, 2.3
2023-03-14T21:14:00.118Z, 2.3
2023-03-14T21:16:00.200Z, 2.4
2023-03-14T21:18:00.128Z, 2.4
2023-03-14T21:20:00.180Z, 2.4
2023-03-14T21:22:00.118Z, 2.5
2023-03-14T21:24:00.141Z, 2.5
2023-03-14T21:26:00.123Z, 2.6
2023-03-14T21:28:00.081Z, 2.5
2023-03-14T21:30:00.124Z, 2.6
2023-03-14T21:32:00.053Z, 2.5
2023-03-14T21:34:00.090Z, 2.4
2023-03-14T21:36:00.186Z, 2.4
2023-03-14T21:38:00.040Z, 2.4
2023-03-14T21:40:00.051Z, 2.3
2023-03-14T21:42:00.106Z, 2.4
2023-03-14T21:44:00.075Z, 2.4
2023-03-14T21:46:00.050Z, 2.4
2023-03-14T21:48:00.102Z, 2.4
2023-03-14T21:50:00.066Z, 2.4
2023-03-14T21:52:00.097Z, 2.4
2023-03-14T21:54:00.103Z, 2.4
2023-03-14T21:56:00.142Z, 2.4
2023-03-14T21:58:00.095Z, 2.4
2023-03-14T22:00:00.137Z, 2.5
2023-03-14T22:02:00.194Z, 2.4
2023-03-14T22:04:00.115Z, 2.4
2023-03-14T22:06:00.104Z, 2.4
2023-03-14T22:08:00.098Z, 2.3
2023-03-14T22:10:00.131Z, 2.3
2023-03-14T22:12:00.101Z, 2.2
2023-03-14T22:14:00.099Z, 2.2
2023-03-14T22:16:00.233Z, 2.2
2023-03-14T22:18:00.102Z, 2.3
2023-03-14T22:20:00.115Z, 2.3
2023-03-14T22:22:00.125Z, 2.3
2023-03-14T22:24:00.111Z, 2.2
2023-03-14T22:26:00.111Z, 2.2
2023-03-14T22:28:00.116Z, 2.2
2023-03-14T22:30:00.081Z, 2.2
2023-03-14T22:32:00.066Z, 2
2023-03-14T22:34:00.068Z, 2
2023-03-14T22:36:00.188Z, 2
2023-03-14T22:38:00.065Z, 1.9
2023-03-14T22:40:00.046Z, 1.9
2023-03-14T22:42:00.084Z, 1.9
2023-03-14T22:44:00.045Z, 1.8
2023-03-14T22:46:00.140Z, 1.8
2023-03-14T22:48:00.085Z, 1.6
2023-03-14T22:50:00.043Z, 1.5
2023-03-14T22:52:00.037Z, 1.4
2023-03-14T22:54:00.039Z, 1.4
2023-03-14T22:56:00.132Z, 1.3
2023-03-14T22:58:00.104Z, 1.3
2023-03-14T23:00:00.129Z, 1.2
2023-03-14T23:02:00.133Z, 1.2
2023-03-14T23:04:00.090Z, 1.1
2023-03-14T23:06:00.116Z, 1.1
2023-03-14T23:08:00.146Z, 1.3
2023-03-14T23:10:00.136Z, 1.6
2023-03-14T23:12:00.110Z, 1.9
2023-03-14T23:14:00.122Z, 2.1
2023-03-14T23:16:00.096Z, 2.3
2023-03-14T23:18:00.114Z, 2.1
2023-03-14T23:20:00.146Z, 2
2023-03-14T23:22:00.104Z, 2
2023-03-14T23:24:00.120Z, 2.1
2023-03-14T23:26:00.107Z, 2.1
2023-03-14T23:28:00.104Z, 1.9
2023-03-14T23:30:00.114Z, 1.7
2023-03-14T23:32:00.088Z, 1.7
2023-03-14T23:34:00.063Z, 1.6
2023-03-14T23:36:00.142Z, 1.5
2023-03-14T23:38:00.049Z, 1.4
2023-03-14T23:40:00.054Z, 1.6
2023-03-14T23:42:00.061Z, 1.7
2023-03-14T23:44:00.048Z, 1.4
2023-03-14T23:46:00.109Z, 1.1
2023-03-14T23:48:00.075Z, 0.8
2023-03-14T23:50:00.055Z, 0.6
2023-03-14T23:52:00.051Z, 0.6
2023-03-14T23:54:00.073Z, 0.6
2023-03-14T23:56:00.119Z, 0.8
2023-03-14T23:58:00.123Z, 0.9
